createdAt,value
2017-12-01T00:00:32.648Z,3.75
2017-12-01T00:01:32.363Z,3.76
2017-12-01T00:02:32.600Z,3.71
2017-12-01T00:03:32.577Z,3.65
2017-12-01T00:04:32.025Z,3.67
2017-12-01T00:05:32.274Z,3.67
2017-12-01T00:06:32.249Z,3.78
2017-12-01T00:07:31.967Z,3.75
2017-12-01T00:08:32.212Z,3.76
2017-12-01T00:09:32.452Z,3.76
2017-12-01T00:10:32.434Z,3.72
2017-12-01T00:11:31.879Z,3.61
2017-12-01T00:12:32.127Z,3.71
2017-12-01T00:13:32.369Z,3.6
2017-12-01T00:14:32.346Z,3.65
2017-12-01T00:15:32.324Z,3.62
2017-12-01T00:16:31.778Z,3.76
2017-12-01T00:17:32.021Z,3.76
2017-12-01T00:18:31.992Z,3.65
2017-12-01T00:19:31.712Z,3.75
2017-12-01T00:20:31.685Z,3.76
2017-12-01T00:21:31.931Z,3.76
2017-12-01T00:22:31.913Z,3.71
2017-12-01T00:23:31.888Z,3.75
2017-12-01T00:24:31.865Z,3.65
2017-12-01T00:25:31.856Z,3.68
2017-12-01T00:26:31.558Z,3.71
2017-12-01T00:27:31.836Z,3.75
2017-12-01T00:28:31.781Z,3.72
2017-12-01T00:29:31.757Z,3.72
2017-12-01T00:30:31.736Z,3.62
2017-12-01T00:31:31.713Z,3.67
2017-12-01T00:32:31.433Z,3.65
2017-12-01T00:33:31.409Z,3.76
2017-12-01T00:34:31.653Z,3.65
2017-12-01T00:35:31.628Z,3.65
2017-12-01T00:36:31.612Z,3.62
2017-12-01T00:37:31.319Z,3.64
2017-12-01T00:38:31.831Z,3.67
2017-12-01T00:39:31.811Z,3.7
2017-12-01T00:40:31.525Z,3.68
2017-12-01T00:41:31.773Z,3.72
2017-12-01T00:42:31.491Z,3.68
2017-12-01T00:43:31.461Z,3.67
2017-12-01T00:44:31.445Z,3.6
2017-12-01T00:45:31.156Z,3.64
2017-12-01T00:46:31.134Z,3.65
2017-12-01T00:47:31.645Z,3.71
2017-12-01T00:48:31.091Z,3.6
2017-12-01T00:49:31.594Z,3.65
2017-12-01T00:50:31.338Z,3.68
2017-12-01T00:51:31.292Z,3.75
2017-12-01T00:52:31.539Z,3.72
2017-12-01T00:53:31.509Z,3.6
2017-12-01T00:54:31.224Z,3.62
2017-12-01T00:55:31.202Z,3.78
2017-12-01T00:56:30.917Z,3.68
2017-12-01T00:57:31.161Z,3.71
2017-12-01T00:58:31.152Z,3.76
2017-12-01T00:59:31.128Z,3.71
2017-12-01T01:00:31.095Z,3.76
2017-12-01T01:01:31.077Z,3.75
2017-12-01T01:02:31.074Z,3.65
2017-12-01T01:03:31.088Z,3.75
2017-12-01T01:04:31.013Z,3.64
2017-12-01T01:05:31.257Z,3.7
2017-12-01T01:06:31.237Z,3.75
2017-12-01T01:07:31.210Z,3.65
2017-12-01T01:08:31.188Z,3.62
2017-12-01T01:09:30.909Z,3.65
2017-12-01T01:10:30.884Z,3.71
2017-12-01T01:11:30.859Z,3.58
2017-12-01T01:12:30.925Z,3.7
2017-12-01T01:13:30.874Z,3.62
2017-12-01T01:14:31.064Z,3.67
2017-12-01T01:15:30.777Z,3.62
2017-12-01T01:16:30.765Z,3.67
2017-12-01T01:17:30.735Z,3.62
2017-12-01T01:18:30.708Z,3.62
2017-12-01T01:19:30.687Z,3.61
2017-12-01T01:20:30.932Z,3.68
2017-12-01T01:21:30.921Z,3.75
2017-12-01T01:22:30.628Z,3.65
2017-12-01T01:23:30.600Z,3.67
2017-12-01T01:24:30.852Z,3.6
2017-12-01T01:25:30.568Z,3.75
2017-12-01T01:26:30.535Z,3.72
2017-12-01T01:27:30.252Z,3.75
2017-12-01T01:28:30.228Z,3.75
2017-12-01T01:29:30.209Z,3.79
2017-12-01T01:30:30.190Z,3.76
2017-12-01T01:31:30.170Z,3.76
2017-12-01T01:32:30.675Z,3.76
2017-12-01T01:33:30.393Z,3.68
2017-12-01T01:34:30.366Z,3.7
2017-12-01T01:35:30.609Z,3.71
2017-12-01T01:36:30.526Z,3.78
2017-12-01T01:37:30.302Z,3.7
2017-12-01T01:38:30.015Z,3.75
2017-12-01T01:39:30.258Z,3.72
2017-12-01T01:40:30.243Z,3.71
2017-12-01T01:41:30.218Z,3.75
2017-12-01T01:42:30.194Z,3.72
2017-12-01T01:43:30.445Z,3.8
2017-12-01T01:44:30.417Z,3.72
2017-12-01T01:45:30.143Z,3.76
2017-12-01T01:46:30.422Z,3.8
2017-12-01T01:47:30.091Z,3.78
2017-12-01T01:48:30.333Z,3.76
2017-12-01T01:49:30.054Z,3.75
2017-12-01T01:50:30.022Z,3.76
2017-12-01T01:51:30.005Z,3.72
2017-12-01T01:52:29.987Z,3.75
2017-12-01T01:53:29.960Z,3.76
2017-12-01T01:54:29.673Z,3.83
2017-12-01T01:55:29.918Z,3.82
2017-12-01T01:56:29.904Z,3.79
2017-12-01T01:57:30.203Z,3.72
2017-12-01T01:58:29.866Z,3.71
2017-12-01T01:59:29.831Z,3.78
2017-12-01T02:00:29.551Z,3.71
2017-12-01T02:01:29.787Z,3.76
2017-12-01T02:02:29.765Z,3.78
2017-12-01T02:03:29.745Z,3.72
2017-12-01T02:04:29.991Z,3.65
2017-12-01T02:05:29.731Z,3.67
2017-12-01T02:06:29.679Z,3.76
2017-12-01T02:07:29.657Z,3.7
2017-12-01T02:08:29.900Z,3.75
2017-12-01T02:09:29.616Z,3.71
2017-12-01T02:10:29.595Z,3.64
2017-12-01T02:11:29.836Z,3.62
2017-12-01T02:12:29.551Z,3.64
2017-12-01T02:13:29.526Z,3.58
2017-12-01T02:14:29.778Z,3.53
2017-12-01T02:15:29.502Z,3.6
2017-12-01T02:16:29.484Z,3.53
2017-12-01T02:17:29.712Z,3.58
2017-12-01T02:18:29.428Z,3.58
2017-12-01T02:19:29.402Z,3.58
2017-12-01T02:20:29.114Z,3.62
2017-12-01T02:21:29.642Z,3.62
2017-12-01T02:22:29.334Z,3.57
2017-12-01T02:23:29.055Z,3.61
2017-12-01T02:24:29.294Z,3.49
2017-12-01T02:25:29.274Z,3.58
2017-12-01T02:26:29.524Z,3.49
2017-12-01T02:27:29.227Z,3.54
2017-12-01T02:28:28.940Z,3.52
2017-12-01T02:29:28.916Z,3.49
2017-12-01T02:30:29.440Z,3.44
2017-12-01T02:31:29.161Z,3.46
2017-12-01T02:32:29.117Z,3.47
2017-12-01T02:33:29.105Z,3.47
2017-12-01T02:34:28.814Z,3.43
2017-12-01T02:35:29.326Z,3.46
2017-12-01T02:36:29.042Z,3.34
2017-12-01T02:37:29.012Z,3.43
2017-12-01T02:38:28.991Z,3.43
2017-12-01T02:39:28.717Z,3.42
2017-12-01T02:40:28.946Z,3.4
2017-12-01T02:41:28.928Z,3.34
2017-12-01T02:42:28.904Z,3.39
2017-12-01T02:43:28.881Z,3.33
2017-12-01T02:44:29.138Z,3.27
2017-12-01T02:45:28.845Z,3.25
2017-12-01T02:46:28.823Z,3.27
2017-12-01T02:47:28.794Z,3.23
2017-12-01T02:48:28.516Z,3.3
2017-12-01T02:49:28.766Z,3.23
2017-12-01T02:50:28.734Z,3.16
2017-12-01T02:51:28.979Z,3.2
2017-12-01T02:52:28.950Z,3.13
2017-12-01T02:53:28.669Z,3.16
2017-12-01T02:54:28.916Z,3.2
2017-12-01T02:55:28.356Z,3.2
2017-12-01T02:56:28.888Z,3.23
2017-12-01T02:57:28.897Z,3.23
2017-12-01T02:58:28.286Z,3.2
2017-12-01T02:59:28.266Z,3.16
2017-12-01T03:00:28.770Z,3.23
2017-12-01T03:01:28.219Z,3.16
2017-12-01T03:02:28.468Z,3.13
2017-12-01T03:03:28.174Z,3.12
2017-12-01T03:04:28.418Z,3.1
2017-12-01T03:05:28.397Z,3.05
2017-12-01T03:06:28.378Z,3.03
2017-12-01T03:07:28.352Z,2.92
2017-12-01T03:08:28.075Z,2.98
2017-12-01T03:09:28.317Z,3.05
2017-12-01T03:10:28.290Z,2.95
2017-12-01T03:11:28.262Z,2.91
2017-12-01T03:12:27.984Z,2.79
2017-12-01T03:13:28.484Z,2.82
2017-12-01T03:14:28.198Z,2.73
2017-12-01T03:15:28.181Z,2.81
2017-12-01T03:16:28.418Z,2.73
2017-12-01T03:17:28.127Z,2.77
2017-12-01T03:18:27.843Z,2.74
2017-12-01T03:19:28.351Z,2.76
2017-12-01T03:20:28.332Z,2.58
2017-12-01T03:21:27.779Z,2.73
2017-12-01T03:22:28.019Z,2.58
2017-12-01T03:23:28.264Z,2.58
2017-12-01T03:24:28.238Z,2.51
2017-12-01T03:25:27.954Z,2.49
2017-12-01T03:26:28.207Z,2.34
2017-12-01T03:27:28.180Z,2.45
2017-12-01T03:28:28.162Z,2.44
2017-12-01T03:29:28.128Z,2.46
2017-12-01T03:30:27.841Z,2.37
2017-12-01T03:31:27.832Z,2.4
2017-12-01T03:32:27.529Z,2.35
2017-12-01T03:33:27.772Z,2.34
2017-12-01T03:34:28.021Z,2.33
2017-12-01T03:35:27.730Z,2.17
2017-12-01T03:36:27.911Z,2.22
2017-12-01T03:37:27.477Z,2.17
2017-12-01T03:38:27.944Z,2.17
2017-12-01T03:39:27.644Z,2.13
2017-12-01T03:40:27.879Z,2.15
2017-12-01T03:41:27.589Z,2.02
2017-12-01T03:42:27.834Z,2.01
2017-12-01T03:43:27.816Z,2.01
2017-12-01T03:44:27.538Z,1.98
2017-12-01T03:45:27.233Z,1.85
2017-12-01T03:46:27.755Z,1.8
2017-12-01T03:47:27.725Z,1.82
2017-12-01T03:48:27.696Z,1.87
2017-12-01T03:49:27.673Z,1.73
2017-12-01T03:50:27.384Z,1.69
2017-12-01T03:51:27.098Z,1.8
2017-12-01T03:52:27.602Z,1.71
2017-12-01T03:53:27.317Z,1.76
2017-12-01T03:54:27.559Z,1.72
2017-12-01T03:55:27.540Z,1.69
2017-12-01T03:56:27.516Z,1.69
2017-12-01T03:57:27.225Z,1.57
2017-12-01T03:58:27.202Z,1.57
2017-12-01T03:59:27.178Z,1.62
2017-12-01T04:00:27.163Z,1.61
2017-12-01T04:01:27.403Z,1.6
2017-12-01T04:02:26.849Z,1.6
2017-12-01T04:03:26.819Z,1.58
2017-12-01T04:04:27.328Z,1.62
2017-12-01T04:05:27.040Z,1.55
2017-12-01T04:06:26.756Z,1.55
2017-12-01T04:07:27.002Z,1.52
2017-12-01T04:08:27.232Z,1.47
2017-12-01T04:09:27.215Z,1.39
2017-12-01T04:10:26.922Z,1.52
2017-12-01T04:11:26.902Z,1.39
2017-12-01T04:12:26.879Z,1.42
2017-12-01T04:13:26.856Z,1.51
2017-12-01T04:14:27.094Z,1.47
2017-12-01T04:15:27.088Z,1.47
2017-12-01T04:16:26.800Z,1.39
2017-12-01T04:17:27.025Z,1.36
2017-12-01T04:18:26.742Z,1.34
2017-12-01T04:19:26.457Z,1.37
2017-12-01T04:20:26.979Z,1.37
2017-12-01T04:21:26.935Z,1.39
2017-12-01T04:22:26.651Z,1.33
2017-12-01T04:23:26.622Z,1.34
2017-12-01T04:24:26.879Z,1.29
2017-12-01T04:25:26.573Z,1.36
2017-12-01T04:26:26.552Z,1.36
2017-12-01T04:27:26.531Z,1.28
2017-12-01T04:28:26.505Z,1.32
2017-12-01T04:29:26.489Z,1.16
2017-12-01T04:30:26.194Z,1.22
2017-12-01T04:31:26.434Z,1.19
2017-12-01T04:32:26.671Z,1.21
2017-12-01T04:33:26.391Z,1.19
2017-12-01T04:34:26.097Z,1.25
2017-12-01T04:35:26.340Z,1.22
2017-12-01T04:36:26.318Z,1.21
2017-12-01T04:37:26.290Z,1.19
2017-12-01T04:38:26.532Z,1.25
2017-12-01T04:39:26.246Z,1.19
2017-12-01T04:40:25.963Z,1.29
2017-12-01T04:41:26.197Z,1.15
2017-12-01T04:42:26.170Z,1.36
2017-12-01T04:43:26.154Z,1.26
2017-12-01T04:44:25.862Z,1.28
2017-12-01T04:45:26.100Z,1.36
2017-12-01T04:46:26.343Z,1.33
2017-12-01T04:47:26.338Z,1.39
2017-12-01T04:48:26.042Z,1.39
2017-12-01T04:49:25.742Z,1.43
2017-12-01T04:50:26.250Z,1.46
2017-12-01T04:51:26.223Z,1.42
2017-12-01T04:52:25.673Z,1.46
2017-12-01T04:53:25.647Z,1.57
2017-12-01T04:54:25.628Z,1.52
2017-12-01T04:55:25.602Z,1.57
2017-12-01T04:56:25.879Z,1.5
2017-12-01T04:57:26.096Z,1.57
2017-12-01T04:58:25.529Z,1.58
2017-12-01T04:59:25.772Z,1.61
2017-12-01T05:00:25.752Z,1.58
2017-12-01T05:01:25.464Z,1.68
2017-12-01T05:02:25.709Z,1.68
2017-12-01T05:03:25.950Z,1.76
2017-12-01T05:04:25.661Z,1.62
2017-12-01T05:05:25.633Z,1.75
2017-12-01T05:06:25.606Z,1.76
2017-12-01T05:07:25.320Z,1.87
2017-12-01T05:08:25.562Z,1.79
2017-12-01T05:09:25.813Z,1.87
2017-12-01T05:10:25.520Z,1.83
2017-12-01T05:11:25.758Z,1.83
2017-12-01T05:12:25.472Z,1.9
2017-12-01T05:13:25.449Z,1.83
2017-12-01T05:14:25.426Z,1.97
2017-12-01T05:15:25.662Z,1.83
2017-12-01T05:16:25.423Z,1.87
2017-12-01T05:17:25.353Z,1.8
2017-12-01T05:18:25.326Z,1.9
2017-12-01T05:19:25.307Z,1.8
2017-12-01T05:20:25.550Z,1.89
2017-12-01T05:21:25.263Z,1.91
2017-12-01T05:22:25.507Z,1.94
2017-12-01T05:23:25.217Z,1.99
2017-12-01T05:24:24.926Z,2.01
2017-12-01T05:25:24.902Z,2.01
2017-12-01T05:26:25.145Z,1.94
2017-12-01T05:27:24.856Z,1.97
2017-12-01T05:28:25.110Z,2.1
2017-12-01T05:29:25.073Z,2.09
2017-12-01T05:30:25.061Z,2.09
2017-12-01T05:31:25.035Z,2.09
2017-12-01T05:32:25.006Z,2.06
2017-12-01T05:33:24.984Z,2.02
2017-12-01T05:34:24.699Z,2.08
2017-12-01T05:35:24.937Z,2.09
2017-12-01T05:36:25.126Z,2.09
2017-12-01T05:37:24.887Z,2.02
2017-12-01T05:38:24.871Z,2.09
2017-12-01T05:39:24.843Z,2.04
2017-12-01T05:40:25.087Z,1.98
2017-12-01T05:41:24.531Z,2.06
2017-12-01T05:42:24.774Z,2.02
2017-12-01T05:43:24.491Z,2.01
2017-12-01T05:44:24.732Z,2.08
2017-12-01T05:45:24.971Z,2.01
2017-12-01T05:46:24.681Z,2.1
2017-12-01T05:47:24.922Z,2.08
2017-12-01T05:48:24.647Z,2.1
2017-12-01T05:49:24.879Z,2.08
2017-12-01T05:50:24.590Z,2.09
2017-12-01T05:51:24.842Z,2.04
2017-12-01T05:52:24.278Z,2.12
2017-12-01T05:53:24.790Z,2.06
2017-12-01T05:54:24.766Z,2.08
2017-12-01T05:55:24.474Z,2.06
2017-12-01T05:56:24.185Z,2.08
2017-12-01T05:57:24.163Z,2.13
2017-12-01T05:58:24.669Z,2.12
2017-12-01T05:59:24.653Z,2.16
2017-12-01T06:00:24.096Z,2.12
2017-12-01T06:01:24.599Z,2.17
2017-12-01T06:02:24.581Z,2.08
2017-12-01T06:03:24.560Z,2.16
2017-12-01T06:04:24.535Z,2.09
2017-12-01T06:05:24.255Z,2.09
2017-12-01T06:06:24.487Z,2.22
2017-12-01T06:07:24.467Z,2.16
2017-12-01T06:08:24.176Z,2.2
2017-12-01T06:09:24.418Z,2.2
2017-12-01T06:10:24.393Z,2.22
2017-12-01T06:11:24.385Z,2.2
2017-12-01T06:12:24.348Z,2.2
2017-12-01T06:13:24.326Z,2.15
2017-12-01T06:14:23.774Z,2.19
2017-12-01T06:15:24.018Z,2.15
2017-12-01T06:16:24.006Z,2.16
2017-12-01T06:17:24.239Z,2.17
2017-12-01T06:18:23.948Z,2.17
2017-12-01T06:19:23.942Z,2.13
2017-12-01T06:20:23.904Z,2.16
2017-12-01T06:21:24.156Z,2.1
2017-12-01T06:22:23.858Z,2.1
2017-12-01T06:23:24.105Z,2.12
2017-12-01T06:24:24.074Z,2.15
2017-12-01T06:25:24.055Z,2.17
2017-12-01T06:26:24.038Z,2.17
2017-12-01T06:27:23.483Z,2.16
2017-12-01T06:28:23.719Z,2.19
2017-12-01T06:29:23.744Z,2.22
2017-12-01T06:30:23.942Z,2.23
2017-12-01T06:31:23.916Z,2.28
2017-12-01T06:32:23.627Z,2.23
2017-12-01T06:33:23.601Z,2.3
2017-12-01T06:34:23.581Z,2.16
2017-12-01T06:35:23.566Z,2.16
2017-12-01T06:36:23.803Z,2.26
2017-12-01T06:37:23.521Z,2.22
2017-12-01T06:38:23.784Z,2.22
2017-12-01T06:39:23.732Z,2.15
2017-12-01T06:40:23.451Z,2.16
2017-12-01T06:41:23.699Z,2.17
2017-12-01T06:42:23.139Z,2.13
2017-12-01T06:43:23.381Z,2.19
2017-12-01T06:44:23.353Z,2.1
2017-12-01T06:45:23.327Z,2.04
2017-12-01T06:46:23.048Z,2.16
2017-12-01T06:47:23.291Z,2.12
2017-12-01T06:48:23.272Z,2.13
2017-12-01T06:49:22.982Z,2.02
2017-12-01T06:50:23.219Z,2.15
2017-12-01T06:51:23.514Z,2.12
2017-12-01T06:52:23.164Z,2.02
2017-12-01T06:53:23.405Z,2.04
2017-12-01T06:54:23.385Z,2.04
2017-12-01T06:55:23.368Z,2.09
2017-12-01T06:56:23.081Z,2.02
2017-12-01T06:57:22.789Z,2.09
2017-12-01T06:58:23.027Z,2.06
2017-12-01T06:59:23.020Z,2.15
2017-12-01T07:00:23.250Z,2.16
2017-12-01T07:01:22.972Z,2.15
2017-12-01T07:02:22.957Z,2.13
2017-12-01T07:03:22.912Z,2.17
2017-12-01T07:04:22.892Z,2.17
2017-12-01T07:05:22.868Z,2.16
2017-12-01T07:06:22.890Z,2.13
2017-12-01T07:07:22.839Z,2.1
2017-12-01T07:08:22.801Z,2.17
2017-12-01T07:09:22.781Z,2.16
2017-12-01T07:10:22.755Z,2.17
2017-12-01T07:11:22.995Z,2.16
2017-12-01T07:12:22.717Z,2.23
2017-12-01T07:13:22.683Z,2.28
2017-12-01T07:14:22.662Z,2.34
2017-12-01T07:15:22.374Z,2.27
2017-12-01T07:16:22.358Z,2.33
2017-12-01T07:17:22.329Z,2.3
2017-12-01T07:18:22.573Z,2.35
2017-12-01T07:19:22.548Z,2.34
2017-12-01T07:20:22.525Z,2.33
2017-12-01T07:21:22.765Z,2.34
2017-12-01T07:22:22.515Z,2.38
2017-12-01T07:23:22.457Z,2.38
2017-12-01T07:24:22.440Z,2.4
2017-12-01T07:25:22.417Z,2.35
2017-12-01T07:26:22.394Z,2.31
2017-12-01T07:27:22.567Z,2.34
2017-12-01T07:28:22.378Z,2.35
2017-12-01T07:29:22.338Z,2.45
2017-12-01T07:30:22.567Z,2.35
2017-12-01T07:31:22.014Z,2.45
2017-12-01T07:32:22.260Z,2.44
2017-12-01T07:33:21.962Z,2.48
2017-12-01T07:34:22.206Z,2.51
2017-12-01T07:35:21.921Z,2.52
2017-12-01T07:36:22.426Z,2.59
2017-12-01T07:37:21.876Z,2.55
2017-12-01T07:38:22.116Z,2.56
2017-12-01T07:39:22.098Z,2.56
2017-12-01T07:40:21.806Z,2.53
2017-12-01T07:41:22.314Z,2.49
2017-12-01T07:42:22.026Z,2.52
2017-12-01T07:43:21.737Z,2.63
2017-12-01T07:44:21.988Z,2.59
2017-12-01T07:45:21.960Z,2.56
2017-12-01T07:46:21.670Z,2.66
2017-12-01T07:47:21.911Z,2.59
2017-12-01T07:48:21.624Z,2.61
2017-12-01T07:49:21.865Z,2.69
2017-12-01T07:50:22.108Z,2.74
2017-12-01T07:51:22.090Z,2.73
2017-12-01T07:52:21.799Z,2.77
2017-12-01T07:53:21.781Z,2.64
2017-12-01T07:54:21.762Z,2.69
2017-12-01T07:55:21.737Z,2.76
2017-12-01T07:56:21.711Z,2.74
2017-12-01T07:57:21.954Z,2.76
2017-12-01T07:58:21.668Z,2.77
2017-12-01T07:59:21.384Z,2.82
2017-12-01T08:00:21.882Z,2.76
2017-12-01T08:01:21.861Z,2.76
2017-12-01T08:02:21.574Z,2.81
2017-12-01T08:03:21.295Z,2.87
2017-12-01T08:04:21.790Z,2.94
2017-12-01T08:05:21.779Z,2.92
2017-12-01T08:06:21.757Z,2.89
2017-12-01T08:07:21.461Z,2.94
2017-12-01T08:08:21.181Z,2.94
2017-12-01T08:09:21.413Z,2.98
2017-12-01T08:10:21.659Z,3
2017-12-01T08:11:21.110Z,3.03
2017-12-01T08:12:21.615Z,2.95
2017-12-01T08:13:21.328Z,3.05
2017-12-01T08:14:21.310Z,2.98
2017-12-01T08:15:21.286Z,3.02
2017-12-01T08:16:21.260Z,3.09
2017-12-01T08:17:21.499Z,3.06
2017-12-01T08:18:21.482Z,3.07
2017-12-01T08:19:21.457Z,3.15
2017-12-01T08:20:21.169Z,3.07
2017-12-01T08:21:21.153Z,3.09
2017-12-01T08:22:21.124Z,3.12
2017-12-01T08:23:21.104Z,3.15
2017-12-01T08:24:21.089Z,3.2
2017-12-01T08:25:21.061Z,3.16
2017-12-01T08:26:21.304Z,3.13
2017-12-01T08:27:21.281Z,3.12
2017-12-01T08:28:21.001Z,3.15
2017-12-01T08:29:21.237Z,3.16
2017-12-01T08:30:21.240Z,3.18
2017-12-01T08:31:20.934Z,3.18
2017-12-01T08:32:20.921Z,3.12
2017-12-01T08:33:21.148Z,3.15
2017-12-01T08:34:21.147Z,3.27
2017-12-01T08:35:20.580Z,3.25
2017-12-01T08:36:20.817Z,3.28
2017-12-01T08:37:20.839Z,3.25
2017-12-01T08:38:20.776Z,3.28
2017-12-01T08:39:20.747Z,3.34
2017-12-01T08:40:20.740Z,3.4
2017-12-01T08:41:20.703Z,3.42
2017-12-01T08:42:20.955Z,3.39
2017-12-01T08:43:20.673Z,3.47
2017-12-01T08:44:20.373Z,3.52
2017-12-01T08:45:20.623Z,3.44
2017-12-01T08:46:20.596Z,3.47
2017-12-01T08:47:20.307Z,3.44
2017-12-01T08:48:20.548Z,3.47
2017-12-01T08:49:20.268Z,3.44
2017-12-01T08:50:20.775Z,3.47
2017-12-01T08:51:20.748Z,3.43
2017-12-01T08:52:20.194Z,3.49
2017-12-01T08:53:20.443Z,3.5
2017-12-01T08:54:20.422Z,3.44
2017-12-01T08:55:20.401Z,3.47
2017-12-01T08:56:20.657Z,3.44
2017-12-01T08:57:20.626Z,3.47
2017-12-01T08:58:20.595Z,3.44
2017-12-01T08:59:20.326Z,3.5
2017-12-01T09:00:20.291Z,3.54
2017-12-01T09:01:20.008Z,3.52
2017-12-01T09:02:20.250Z,3.54
2017-12-01T09:03:19.968Z,3.54
2017-12-01T09:04:19.941Z,3.52
2017-12-01T09:05:20.452Z,3.49
2017-12-01T09:06:20.430Z,3.47
2017-12-01T09:07:20.136Z,3.58
2017-12-01T09:08:20.119Z,3.57
2017-12-01T09:09:19.833Z,3.57
2017-12-01T09:10:19.808Z,3.65
2017-12-01T09:11:20.056Z,3.61
2017-12-01T09:12:20.087Z,3.62
2017-12-01T09:13:20.276Z,3.58
2017-12-01T09:14:20.253Z,3.65
2017-12-01T09:15:19.967Z,3.57
2017-12-01T09:16:19.946Z,3.6
2017-12-01T09:17:19.702Z,3.52
2017-12-01T09:18:19.910Z,3.57
2017-12-01T09:19:19.879Z,3.58
2017-12-01T09:20:20.119Z,3.61
2017-12-01T09:21:19.837Z,3.57
2017-12-01T09:22:20.079Z,3.61
2017-12-01T09:23:20.065Z,3.53
2017-12-01T09:24:20.087Z,3.68
2017-12-01T09:25:19.483Z,3.54
2017-12-01T09:26:19.728Z,3.64
2017-12-01T09:27:19.709Z,3.6
2017-12-01T09:28:19.690Z,3.57
2017-12-01T09:29:19.668Z,3.58
2017-12-01T09:30:19.381Z,3.6
2017-12-01T09:31:19.884Z,3.62
2017-12-01T09:32:19.862Z,3.67
2017-12-01T09:33:19.841Z,3.6
2017-12-01T09:34:19.822Z,3.7
2017-12-01T09:35:19.539Z,3.67
2017-12-01T09:36:19.781Z,3.68
2017-12-01T09:37:19.696Z,3.61
2017-12-01T09:38:19.740Z,3.64
2017-12-01T09:39:19.181Z,3.57
2017-12-01T09:40:19.425Z,3.68
2017-12-01T09:41:19.402Z,3.54
2017-12-01T09:42:19.643Z,3.61
2017-12-01T09:43:19.094Z,3.54
2017-12-01T09:44:19.602Z,3.54
2017-12-01T09:45:19.047Z,3.49
2017-12-01T09:46:19.035Z,3.49
2017-12-01T09:47:19.010Z,3.42
2017-12-01T09:48:19.253Z,3.42
2017-12-01T09:49:19.501Z,3.42
2017-12-01T09:50:19.468Z,3.39
2017-12-01T09:51:19.185Z,3.34
2017-12-01T09:52:18.901Z,3.25
2017-12-01T09:53:19.139Z,3.3
2017-12-01T09:54:19.458Z,3.27
2017-12-01T09:55:19.101Z,3.31
2017-12-01T09:56:19.076Z,3.28
2017-12-01T09:57:19.058Z,3.25
2017-12-01T09:58:19.035Z,3.34
2017-12-01T09:59:19.019Z,3.49
2017-12-01T10:00:18.737Z,3.6
2017-12-01T10:01:18.969Z,3.67
2017-12-01T10:02:19.213Z,3.76
2017-12-01T10:03:18.660Z,3.75
2017-12-01T10:04:18.646Z,3.83
2017-12-01T10:05:18.615Z,3.92
2017-12-01T10:06:18.866Z,3.94
2017-12-01T10:07:18.575Z,4.01
2017-12-01T10:08:18.816Z,4.06
2017-12-01T10:09:18.528Z,4.06
2017-12-01T10:10:18.532Z,4.1
2017-12-01T10:11:18.761Z,4.07
2017-12-01T10:12:18.786Z,4.16
2017-12-01T10:13:18.978Z,4.14
2017-12-01T10:14:18.426Z,4.19
2017-12-01T10:15:18.944Z,4.22
2017-12-01T10:16:18.385Z,4.24
2017-12-01T10:17:18.895Z,4.26
2017-12-01T10:18:18.653Z,4.24
2017-12-01T10:19:18.587Z,4.26
2017-12-01T10:20:18.575Z,4.37
2017-12-01T10:21:18.281Z,4.29
2017-12-01T10:22:18.522Z,4.37
2017-12-01T10:23:18.766Z,4.37
2017-12-01T10:24:18.498Z,4.29
2017-12-01T10:25:18.726Z,4.42
2017-12-01T10:26:18.173Z,4.43
2017-12-01T10:27:18.424Z,4.39
2017-12-01T10:28:18.147Z,4.39
2017-12-01T10:29:18.381Z,4.36
2017-12-01T10:30:18.636Z,4.39
2017-12-01T10:31:18.335Z,4.34
2017-12-01T10:32:18.592Z,4.37
2017-12-01T10:33:18.306Z,4.39
2017-12-01T10:34:18.011Z,4.37
2017-12-01T10:35:18.521Z,4.33
2017-12-01T10:36:18.509Z,4.33
2017-12-01T10:37:18.536Z,4.34
2017-12-01T10:38:18.199Z,4.34
2017-12-01T10:39:18.440Z,4.46
2017-12-01T10:40:18.156Z,4.39
2017-12-01T10:41:17.864Z,4.44
2017-12-01T10:42:18.127Z,4.4
2017-12-01T10:43:18.145Z,4.4
2017-12-01T10:44:18.071Z,4.39
2017-12-01T10:45:18.318Z,4.47
2017-12-01T10:46:18.029Z,4.51
2017-12-01T10:47:18.007Z,4.44
2017-12-01T10:48:17.986Z,4.47
2017-12-01T10:49:17.705Z,4.54
2017-12-01T10:50:17.949Z,4.55
2017-12-01T10:51:18.194Z,4.57
2017-12-01T10:52:17.961Z,4.54
2017-12-01T10:53:17.622Z,4.61
2017-12-01T10:54:17.603Z,4.62
2017-12-01T10:55:17.851Z,4.67
2017-12-01T10:56:17.827Z,4.67
2017-12-01T10:57:17.546Z,4.75
2017-12-01T10:58:18.050Z,4.83
2017-12-01T10:59:18.039Z,4.8
2017-12-01T11:00:17.766Z,4.95
2017-12-01T11:01:17.735Z,4.99
2017-12-01T11:02:17.711Z,4.99
2017-12-01T11:03:17.689Z,5.04
2017-12-01T11:04:17.406Z,5.09
2017-12-01T11:05:17.914Z,5.09
2017-12-01T11:06:17.366Z,5.12
2017-12-01T11:07:17.611Z,5.16
2017-12-01T11:08:17.596Z,5.27
2017-12-01T11:09:17.574Z,5.34
2017-12-01T11:10:17.550Z,5.49
2017-12-01T11:11:17.537Z,5.57
2017-12-01T11:12:17.781Z,5.59
2017-12-01T11:13:17.819Z,5.6
2017-12-01T11:14:17.480Z,5.85
2017-12-01T11:15:17.719Z,5.82
2017-12-01T11:16:17.172Z,5.78
2017-12-01T11:17:17.419Z,5.81
2017-12-01T11:18:17.131Z,5.73
2017-12-01T11:19:17.119Z,5.78
2017-12-01T11:20:17.356Z,5.66
2017-12-01T11:21:17.607Z,5.6
2017-12-01T11:22:17.057Z,5.56
2017-12-01T11:23:17.310Z,5.52
2017-12-01T11:24:17.290Z,5.41
2017-12-01T11:25:17.275Z,5.46
2017-12-01T11:26:17.516Z,5.34
2017-12-01T11:27:17.233Z,5.43
2017-12-01T11:28:17.469Z,5.32
2017-12-01T11:29:16.925Z,5.34
2017-12-01T11:30:17.173Z,5.32
2017-12-01T11:31:17.420Z,5.31
2017-12-01T11:32:17.130Z,5.31
2017-12-01T11:33:16.850Z,5.35
2017-12-01T11:34:17.357Z,5.23
2017-12-01T11:35:17.070Z,5.16
2017-12-01T11:36:17.052Z,5.12
2017-12-01T11:37:16.969Z,5.17
2017-12-01T11:38:16.754Z,5.12
2017-12-01T11:39:16.997Z,5.04
2017-12-01T11:40:17.241Z,5.12
2017-12-01T11:41:16.957Z,5.05
2017-12-01T11:42:16.936Z,5.02
2017-12-01T11:43:16.932Z,5.05
2017-12-01T11:44:16.909Z,5.07
2017-12-01T11:45:17.147Z,5.02
2017-12-01T11:46:16.858Z,5.07
2017-12-01T11:47:16.843Z,5.02
2017-12-01T11:48:17.086Z,4.99
2017-12-01T11:49:17.066Z,4.98
2017-12-01T11:50:17.049Z,4.99
2017-12-01T11:51:17.027Z,4.98
2017-12-01T11:52:17.004Z,4.91
2017-12-01T11:53:16.771Z,4.86
2017-12-01T11:54:16.966Z,4.89
2017-12-01T11:55:16.686Z,4.89
2017-12-01T11:56:16.934Z,4.88
2017-12-01T11:57:16.383Z,4.88
2017-12-01T11:58:16.624Z,4.86
2017-12-01T11:59:16.862Z,4.86
2017-12-01T12:00:16.585Z,4.86
2017-12-01T12:01:16.565Z,4.99
2017-12-01T12:02:16.813Z,4.92
2017-12-01T12:03:16.522Z,5.04
2017-12-01T12:04:16.520Z,5.17
2017-12-01T12:05:16.748Z,5.48
2017-12-01T12:06:16.729Z,5.56
2017-12-01T12:07:16.179Z,5.78
2017-12-01T12:08:16.425Z,5.88
2017-12-01T12:09:16.674Z,6.29
2017-12-01T12:10:16.401Z,6.61
2017-12-01T12:11:16.387Z,6.91
2017-12-01T12:12:16.138Z,7.38
2017-12-01T12:13:16.338Z,7.63
2017-12-01T12:14:16.329Z,7.97
2017-12-01T12:15:16.577Z,8.29
2017-12-01T12:16:16.556Z,8.75
2017-12-01T12:17:16.289Z,8.93
2017-12-01T12:18:16.258Z,9.15
2017-12-01T12:19:16.512Z,9.15
2017-12-01T12:20:16.225Z,9.25
2017-12-01T12:21:16.213Z,9.43
2017-12-01T12:22:16.474Z,9.58
2017-12-01T12:23:16.191Z,9.7
2017-12-01T12:24:15.904Z,9.68
2017-12-01T12:25:16.160Z,9.73
2017-12-01T12:26:16.153Z,9.61
2017-12-01T12:27:16.136Z,9.63
2017-12-01T12:28:15.857Z,9.75
2017-12-01T12:29:16.374Z,9.45
2017-12-01T12:30:16.099Z,9.23
2017-12-01T12:31:16.083Z,9.28
2017-12-01T12:32:16.342Z,9.31
2017-12-01T12:33:16.150Z,9.15
2017-12-01T12:34:16.048Z,9.13
2017-12-01T12:35:16.036Z,9.06
2017-12-01T12:36:15.754Z,8.94
2017-12-01T12:37:16.009Z,8.9
2017-12-01T12:38:15.995Z,8.86
2017-12-01T12:39:15.982Z,8.57
2017-12-01T12:40:15.968Z,8.63
2017-12-01T12:41:16.224Z,8.58
2017-12-01T12:42:15.940Z,8.71
2017-12-01T12:43:15.931Z,8.58
2017-12-01T12:44:15.914Z,8.39
2017-12-01T12:45:15.640Z,8.29
2017-12-01T12:46:15.890Z,8.08
2017-12-01T12:47:15.882Z,7.85
2017-12-01T12:48:16.481Z,7.75
2017-12-01T12:49:15.848Z,7.59
2017-12-01T12:50:16.101Z,7.55
2017-12-01T12:51:15.564Z,7.38
2017-12-01T12:52:15.541Z,7.23
2017-12-01T12:53:15.790Z,7.12
2017-12-01T12:54:16.043Z,6.97
2017-12-01T12:55:15.500Z,6.86
2017-12-01T12:56:16.017Z,6.83
2017-12-01T12:57:15.994Z,6.76
2017-12-01T12:58:15.713Z,6.71
2017-12-01T12:59:15.968Z,6.54
2017-12-01T13:00:15.946Z,6.51
2017-12-01T13:01:15.939Z,6.43
2017-12-01T13:02:15.920Z,6.3
2017-12-01T13:03:15.643Z,6.3
2017-12-01T13:04:15.624Z,6.28
2017-12-01T13:05:15.603Z,6.3
2017-12-01T13:06:15.326Z,6.36
2017-12-01T13:07:15.575Z,6.44
2017-12-01T13:08:15.557Z,6.56
2017-12-01T13:09:15.540Z,6.62
2017-12-01T13:10:15.519Z,6.54
2017-12-01T13:11:15.514Z,6.61
2017-12-01T13:12:15.218Z,6.59
2017-12-01T13:13:15.227Z,6.51
2017-12-01T13:14:15.780Z,6.36
2017-12-01T13:15:15.702Z,6.4
2017-12-01T13:16:15.155Z,6.38
2017-12-01T13:17:15.666Z,6.3
2017-12-01T13:18:15.379Z,6.26
2017-12-01T13:19:15.364Z,6.28
2017-12-01T13:20:15.613Z,6.21